Time;durP1;ratioP1;P1;durP2;ratioP2;P2;SDS_P1;SDS_P2;PMS_P1;PMS_P2;Temp;Humidity;BMP_temperature;BMP_pressure;BME280_temperature;BME280_humidity;BME280_pressure;Samples;Min_cycle;Max_cycle;Signal;HPM_P1;HPM_P2
2022/12/02 00:01:48;;;;;;;35.28;15.38;;;4.90;99.90;;;;;;5072245;28;20229;-47
2022/12/02 00:04:23;;;;;;;35.75;14.93;;;4.80;99.90;;;;;;5072654;28;20166;-46
2022/12/02 00:06:50;;;;;;;34.50;16.35;;;4.80;99.90;;;;;;5072340;28;20200;-47
2022/12/02 00:09:35;;;;;;;36.05;16.30;;;4.80;99.90;;;;;;5072239;28;20174;-46
2022/12/02 00:12:18;;;;;;;35.17;16.13;;;4.80;99.90;;;;;;5072257;28;20158;-47
2022/12/02 00:14:44;;;;;;;39.38;17.63;;;4.80;99.90;;;;;;5072386;28;20169;-46
2022/12/02 00:17:09;;;;;;;39.15;16.55;;;5.00;99.90;;;;;;5072261;28;20173;-47
2022/12/02 00:19:35;;;;;;;34.58;16.65;;;4.90;99.90;;;;;;5072397;28;20201;-47
2022/12/02 00:22:01;;;;;;;34.13;15.45;;;4.90;99.90;;;;;;5071740;28;20285;-47
2022/12/02 00:24:26;;;;;;;39.92;17.15;;;4.90;99.90;;;;;;5071807;28;20162;-46
2022/12/02 00:26:52;;;;;;;38.92;16.85;;;4.80;99.90;;;;;;5072399;28;20173;-46
2022/12/02 00:29:18;;;;;;;40.22;18.80;;;4.80;99.90;;;;;;5072004;28;20219;-46
2022/12/02 00:31:43;;;;;;;41.55;19.27;;;4.80;99.90;;;;;;5071998;28;20194;-47
2022/12/02 00:34:09;;;;;;;38.78;17.98;;;4.80;99.90;;;;;;5072000;28;20162;-46
2022/12/02 00:36:34;;;;;;;37.83;17.08;;;4.80;99.90;;;;;;5071995;28;20244;-46
2022/12/02 00:39:00;;;;;;;38.88;17.52;;;4.80;99.90;;;;;;5071912;28;20166;-46
2022/12/02 00:41:25;;;;;;;49.60;18.13;;;4.80;99.90;;;;;;5053358;28;20198;-48
2022/12/02 00:46:36;;;;;;;36.60;16.77;;;4.80;99.90;;;;;;5071764;28;20193;-46
2022/12/02 00:49:01;;;;;;;41.20;19.15;;;4.80;99.90;;;;;;5072084;28;20188;-46
2022/12/02 00:51:27;;;;;;;44.45;19.33;;;4.70;99.90;;;;;;5071685;28;20689;-46
2022/12/02 00:53:53;;;;;;;34.05;16.95;;;4.70;99.90;;;;;;5072165;28;20178;-46
2022/12/02 00:56:18;;;;;;;40.75;17.35;;;4.70;99.90;;;;;;5071689;28;20177;-46
2022/12/02 00:58:44;;;;;;;32.75;15.68;;;4.70;99.90;;;;;;5071718;28;20202;-46
2022/12/02 01:01:10;;;;;;;34.75;17.52;;;4.60;99.90;;;;;;5070874;28;20221;-46
2022/12/02 01:03:36;;;;;;;40.15;17.63;;;4.70;99.90;;;;;;5053336;28;20169;-47
2022/12/02 01:06:01;;;;;;;41.70;18.45;;;4.70;99.90;;;;;;5071522;28;20174;-46
2022/12/02 01:08:28;;;;;;;41.22;18.13;;;4.70;99.90;;;;;;5071886;28;20201;-46
2022/12/02 01:10:54;;;;;;;43.03;18.63;;;4.70;99.90;;;;;;5053813;28;20162;-47
2022/12/02 01:13:20;;;;;;;38.45;18.33;;;4.70;99.90;;;;;;5071795;28;20223;-46
2022/12/02 01:15:46;;;;;;;39.38;19.58;;;4.70;99.90;;;;;;5071232;28;20166;-46
2022/12/02 01:18:11;;;;;;;32.83;15.98;;;4.70;99.90;;;;;;5071400;28;20208;-46
2022/12/02 01:20:37;;;;;;;42.20;18.50;;;4.70;99.90;;;;;;5071442;28;20182;-46
2022/12/02 01:23:02;;;;;;;42.42;17.45;;;4.70;99.90;;;;;;5071353;28;20625;-46
2022/12/02 01:25:28;;;;;;;42.15;18.08;;;4.60;99.90;;;;;;5071517;28;20614;-46
2022/12/02 01:27:53;;;;;;;49.08;18.95;;;4.60;99.90;;;;;;5071700;28;20174;-47
2022/12/02 01:30:19;;;;;;;38.88;18.23;;;4.50;99.90;;;;;;5071362;28;20162;-46
2022/12/02 01:32:44;;;;;;;38.35;18.40;;;4.60;99.90;;;;;;5071353;28;20170;-46
2022/12/02 01:35:10;;;;;;;41.58;19.25;;;4.60;99.90;;;;;;5071470;28;20610;-47
2022/12/02 01:37:36;;;;;;;35.78;16.23;;;4.50;99.90;;;;;;5071295;28;20621;-46
2022/12/02 01:40:03;;;;;;;32.78;14.18;;;4.50;99.90;;;;;;5071192;28;20344;-46
2022/12/02 01:42:29;;;;;;;42.55;18.95;;;4.50;99.90;;;;;;5071124;28;20633;-47
2022/12/02 01:44:54;;;;;;;36.83;17.05;;;4.50;99.90;;;;;;5071665;28;20219;-47
2022/12/02 01:47:20;;;;;;;35.08;18.05;;;4.50;99.90;;;;;;5071603;28;20177;-46
2022/12/02 01:49:46;;;;;;;37.42;18.25;;;4.60;99.90;;;;;;5071470;28;20200;-46
2022/12/02 01:52:12;;;;;;;40.70;18.00;;;4.60;99.90;;;;;;5071103;28;20594;-46
2022/12/02 01:54:38;;;;;;;41.13;18.58;;;4.50;99.90;;;;;;5071150;28;20174;-47
2022/12/02 01:57:09;;;;;;;40.10;18.88;;;4.60;99.90;;;;;;5071113;28;20173;-46
2022/12/02 01:59:34;;;;;;;43.40;19.92;;;4.60;99.90;;;;;;5071136;28;20162;-46
2022/12/02 02:02:00;;;;;;;45.17;19.27;;;4.70;99.90;;;;;;5070817;28;20708;-47
2022/12/02 02:04:25;;;;;;;39.17;19.15;;;4.60;99.90;;;;;;5071087;28;20227;-46
2022/12/02 02:06:51;;;;;;;42.25;19.55;;;4.60;99.90;;;;;;5071354;28;20209;-46
2022/12/02 02:09:16;;;;;;;41.95;17.38;;;4.60;99.90;;;;;;5071008;28;20170;-46
2022/12/02 02:11:42;;;;;;;44.25;18.55;;;4.60;99.90;;;;;;5070947;28;20178;-46
2022/12/02 02:14:11;;;;;;;43.65;18.98;;;4.60;99.90;;;;;;5073700;28;20548;-46
2022/12/02 02:16:38;;;;;;;40.40;16.75;;;4.60;99.90;;;;;;5074527;28;20174;-46
2022/12/02 02:19:06;;;;;;;41.33;19.83;;;4.50;99.90;;;;;;5074441;28;20509;-46
2022/12/02 02:21:36;;;;;;;42.78;19.92;;;4.50;99.90;;;;;;5074435;28;20288;-47
2022/12/02 02:24:02;;;;;;;46.78;19.90;;;4.60;99.90;;;;;;5074530;28;20223;-48
2022/12/02 02:26:28;;;;;;;42.42;19.40;;;4.50;99.90;;;;;;5074297;28;20170;-47
2022/12/02 02:28:53;;;;;;;44.17;18.45;;;4.50;99.90;;;;;;5074701;28;20162;-46
2022/12/02 02:31:19;;;;;;;37.28;18.48;;;4.40;99.90;;;;;;5074536;28;20176;-49
2022/12/02 02:33:46;;;;;;;44.80;20.02;;;4.40;99.90;;;;;;5074164;28;20171;-47
2022/12/02 02:36:12;;;;;;;39.05;17.58;;;4.40;99.90;;;;;;5074358;28;20166;-48
2022/12/02 02:38:38;;;;;;;35.00;16.50;;;4.50;99.90;;;;;;5074127;28;20215;-47
2022/12/02 02:41:04;;;;;;;35.50;16.40;;;4.50;99.90;;;;;;5074323;28;20213;-47
2022/12/02 02:43:31;;;;;;;34.47;16.27;;;4.40;99.90;;;;;;5074022;28;20186;-47
2022/12/02 02:45:58;;;;;;;38.25;17.45;;;4.40;99.90;;;;;;5074055;28;20249;-47
2022/12/02 02:48:25;;;;;;;34.13;16.42;;;4.40;99.90;;;;;;5074313;28;20198;-47
2022/12/02 02:50:51;;;;;;;42.08;19.00;;;4.50;99.90;;;;;;5074374;28;20594;-46
2022/12/02 02:53:19;;;;;;;39.78;17.63;;;4.50;99.90;;;;;;5073786;28;20194;-46
2022/12/02 02:55:45;;;;;;;35.42;17.27;;;4.50;99.90;;;;;;5074002;28;20163;-46
2022/12/02 02:58:21;;;;;;;34.60;16.45;;;4.60;99.90;;;;;;5073866;28;20185;-46
2022/12/02 03:01:04;;;;;;;32.45;16.00;;;4.60;99.90;;;;;;5073470;28;20704;-46
2022/12/02 03:03:33;;;;;;;36.00;16.80;;;4.60;99.90;;;;;;5074223;28;20169;-47
2022/12/02 03:06:01;;;;;;;33.13;16.48;;;4.50;99.90;;;;;;5073581;28;20163;-47
2022/12/02 03:08:30;;;;;;;33.60;16.33;;;4.60;99.90;;;;;;5073577;28;20634;-46
2022/12/02 03:10:58;;;;;;;32.50;16.80;;;4.60;99.90;;;;;;5073520;28;20170;-47
2022/12/02 03:13:24;;;;;;;34.83;17.30;;;4.60;99.90;;;;;;5073801;28;20170;-46
2022/12/02 03:15:50;;;;;;;37.05;17.27;;;4.60;99.90;;;;;;5073842;28;20170;-46
2022/12/02 03:18:16;;;;;;;37.70;17.35;;;4.60;99.90;;;;;;5073361;28;20664;-47
2022/12/02 03:20:42;;;;;;;37.58;16.70;;;4.60;99.90;;;;;;5073469;28;20382;-46
2022/12/02 03:23:07;;;;;;;37.38;18.35;;;4.60;99.90;;;;;;5073264;28;20162;-46
2022/12/02 03:25:33;;;;;;;31.75;16.38;;;4.60;99.90;;;;;;5073286;28;20208;-46
2022/12/02 03:28:00;;;;;;;35.33;16.83;;;4.60;99.90;;;;;;5073254;28;20166;-46
2022/12/02 03:30:25;;;;;;;34.78;16.70;;;4.60;99.90;;;;;;5073353;28;20180;-47
2022/12/02 03:32:51;;;;;;;35.22;18.08;;;4.60;99.90;;;;;;5055570;28;20166;-46
2022/12/02 03:35:17;;;;;;;36.88;16.60;;;4.60;99.90;;;;;;5073086;28;20562;-46
2022/12/02 03:37:43;;;;;;;32.97;16.55;;;4.60;99.90;;;;;;5072892;28;20166;-47
2022/12/02 03:40:09;;;;;;;38.28;17.70;;;4.50;99.90;;;;;;5072862;28;20162;-46
2022/12/02 03:42:34;;;;;;;34.08;17.08;;;4.50;99.90;;;;;;5072914;28;20162;-47
2022/12/02 03:45:00;;;;;;;35.30;16.80;;;4.60;99.90;;;;;;5072756;28;20177;-47
2022/12/02 03:47:26;;;;;;;34.50;16.48;;;4.60;99.90;;;;;;5073015;28;20174;-47
2022/12/02 03:49:52;;;;;;;35.80;16.88;;;4.60;99.90;;;;;;5073032;28;20204;-47
2022/12/02 03:52:18;;;;;;;35.38;16.30;;;4.60;99.90;;;;;;5072713;28;20166;-48
2022/12/02 03:54:44;;;;;;;36.92;15.80;;;4.50;99.90;;;;;;5072849;28;20174;-49
2022/12/02 03:57:10;;;;;;;35.92;16.63;;;4.50;99.90;;;;;;5072548;28;20158;-51
2022/12/02 03:59:36;;;;;;;33.50;16.70;;;4.40;99.90;;;;;;5072524;28;20177;-47
2022/12/02 04:02:01;;;;;;;32.22;17.08;;;4.50;99.90;;;;;;5072294;28;20321;-47
2022/12/02 04:04:27;;;;;;;37.17;17.33;;;4.50;99.90;;;;;;5054586;28;20626;-46
2022/12/02 04:06:52;;;;;;;41.70;17.77;;;4.60;99.90;;;;;;5072756;28;20644;-47
2022/12/02 04:09:18;;;;;;;34.35;16.02;;;4.60;99.90;;;;;;5072308;28;20173;-46
2022/12/02 04:11:44;;;;;;;33.60;15.73;;;4.60;99.90;;;;;;5072305;28;20220;-46
2022/12/02 04:14:09;;;;;;;34.50;16.10;;;4.60;99.90;;;;;;5072507;28;20630;-46
2022/12/02 04:16:35;;;;;;;36.45;15.05;;;4.60;99.90;;;;;;5072059;28;20232;-47
2022/12/02 04:19:00;;;;;;;37.40;17.35;;;4.50;99.90;;;;;;5072220;28;20166;-46
2022/12/02 04:21:26;;;;;;;34.63;15.65;;;4.50;99.90;;;;;;5072046;28;20686;-46
2022/12/02 04:23:52;;;;;;;42.15;18.98;;;4.50;99.90;;;;;;5072516;28;20169;-46
2022/12/02 04:26:18;;;;;;;35.28;16.48;;;4.60;99.90;;;;;;5072060;28;20166;-46
2022/12/02 04:28:44;;;;;;;37.28;17.90;;;4.60;99.90;;;;;;5072081;28;20162;-47
2022/12/02 04:31:10;;;;;;;38.00;17.25;;;4.60;99.90;;;;;;5071983;28;20166;-47
2022/12/02 04:33:35;;;;;;;32.25;16.40;;;4.60;99.90;;;;;;5072016;28;20594;-47
2022/12/02 04:36:01;;;;;;;39.00;17.45;;;4.60;99.90;;;;;;5071421;28;20166;-48
2022/12/02 04:38:27;;;;;;;35.25;17.70;;;4.60;99.90;;;;;;5071928;28;20158;-49
2022/12/02 04:40:52;;;;;;;36.67;17.50;;;4.60;99.90;;;;;;5072201;28;20204;-46
2022/12/02 04:43:18;;;;;;;37.70;17.45;;;4.60;99.90;;;;;;5071797;28;20177;-48
2022/12/02 04:45:43;;;;;;;37.55;14.80;;;4.60;99.90;;;;;;5071893;28;20743;-47
2022/12/02 04:48:09;;;;;;;36.90;16.83;;;4.50;99.90;;;;;;5071649;28;20714;-49
2022/12/02 04:50:35;;;;;;;31.95;15.45;;;4.50;99.90;;;;;;5072052;28;20177;-46
2022/12/02 04:53:00;;;;;;;30.80;15.25;;;4.50;99.90;;;;;;5071791;28;20509;-47
2022/12/02 04:55:26;;;;;;;36.50;16.63;;;4.50;99.90;;;;;;5071707;28;20570;-47
2022/12/02 04:57:52;;;;;;;31.90;15.77;;;4.50;99.90;;;;;;5072069;28;20245;-47
2022/12/02 05:00:18;;;;;;;35.20;16.58;;;4.50;99.90;;;;;;5071436;28;20294;-48
2022/12/02 05:02:44;;;;;;;42.58;17.80;;;4.50;99.90;;;;;;5071707;28;20181;-49
2022/12/02 05:05:09;;;;;;;37.47;17.17;;;4.50;99.90;;;;;;5071667;28;20162;-49
2022/12/02 05:07:35;;;;;;;35.60;17.15;;;4.50;99.90;;;;;;5071537;28;20178;-48
2022/12/02 05:10:01;;;;;;;28.45;15.05;;;4.60;99.90;;;;;;5071429;28;20541;-48
2022/12/02 05:12:27;;;;;;;33.20;15.10;;;4.50;99.90;;;;;;5071675;28;20169;-46
2022/12/02 05:14:53;;;;;;;35.50;16.33;;;4.50;99.90;;;;;;5071984;28;20173;-47
2022/12/02 05:17:18;;;;;;;34.67;16.52;;;4.50;99.90;;;;;;5071592;28;20162;-47
2022/12/02 05:19:44;;;;;;;37.38;17.35;;;4.50;99.90;;;;;;5071485;28;20249;-48
2022/12/02 05:22:10;;;;;;;36.30;16.27;;;4.50;99.90;;;;;;5071414;28;20677;-48
2022/12/02 05:24:35;;;;;;;35.83;17.10;;;4.50;99.90;;;;;;5071471;28;20167;-46
2022/12/02 05:27:01;;;;;;;36.85;16.52;;;4.40;99.90;;;;;;5071371;28;20170;-47
2022/12/02 05:29:26;;;;;;;39.03;16.70;;;4.50;99.90;;;;;;5071449;28;20199;-47
2022/12/02 05:31:52;;;;;;;46.53;18.23;;;4.50;99.90;;;;;;5071716;28;20194;-47
2022/12/02 05:34:18;;;;;;;39.88;14.63;;;4.50;99.90;;;;;;5071392;28;20170;-46
2022/12/02 05:36:43;;;;;;;39.05;17.80;;;4.50;99.90;;;;;;5071553;28;20177;-46
2022/12/02 05:39:09;;;;;;;36.05;16.38;;;4.40;99.90;;;;;;5071331;28;20227;-47
2022/12/02 05:41:34;;;;;;;35.00;16.90;;;4.50;99.90;;;;;;5071265;28;20208;-46
2022/12/02 05:44:19;;;;;;;39.83;16.90;;;4.50;99.90;;;;;;5071196;28;20159;-46
2022/12/02 05:46:45;;;;;;;36.30;17.98;;;4.40;99.90;;;;;;5071450;28;20194;-48
2022/12/02 05:49:18;;;;;;;43.20;18.83;;;4.50;99.90;;;;;;5073656;28;20189;-47
2022/12/02 05:51:44;;;;;;;41.90;16.92;;;4.50;99.90;;;;;;5075196;28;20199;-46
2022/12/02 05:54:18;;;;;;;36.80;17.92;;;4.50;99.90;;;;;;5074624;28;20162;-47
2022/12/02 05:56:44;;;;;;;28.92;12.45;;;4.50;99.90;;;;;;5074873;28;20155;-47
2022/12/02 05:59:14;;;;;;;42.55;17.77;;;4.50;99.90;;;;;;5074812;28;20170;-47
2022/12/02 06:01:41;;;;;;;42.38;18.33;;;4.40;99.90;;;;;;5074701;28;20214;-46
2022/12/02 06:04:14;;;;;;;42.38;17.92;;;4.40;99.90;;;;;;5074775;28;20172;-46
2022/12/02 06:06:40;;;;;;;43.38;17.95;;;4.40;99.90;;;;;;5074638;28;20673;-46
2022/12/02 06:09:12;;;;;;;44.08;17.67;;;4.40;99.90;;;;;;5074756;28;20162;-46
2022/12/02 06:11:38;;;;;;;37.90;16.17;;;4.40;99.90;;;;;;5074639;28;20174;-47
2022/12/02 06:14:21;;;;;;;39.58;17.33;;;4.30;99.90;;;;;;5074594;28;20241;-46
2022/12/02 06:16:53;;;;;;;41.50;16.67;;;4.30;99.90;;;;;;5074801;28;20267;-46
2022/12/02 06:19:26;;;;;;;32.65;14.10;;;4.40;99.90;;;;;;5074485;28;20220;-46
2022/12/02 06:21:52;;;;;;;39.35;16.58;;;4.30;99.90;;;;;;5074755;28;20699;-46
2022/12/02 06:24:26;;;;;;;39.58;17.77;;;4.30;99.90;;;;;;5074383;28;20220;-46
2022/12/02 06:26:54;;;;;;;47.58;19.58;;;4.30;99.90;;;;;;5074586;28;20170;-46
2022/12/02 06:29:20;;;;;;;42.30;17.15;;;4.40;99.90;;;;;;5074660;28;20190;-47
2022/12/02 06:31:46;;;;;;;41.72;17.70;;;4.40;99.90;;;;;;5074337;28;20162;-47
2022/12/02 06:34:30;;;;;;;38.45;17.27;;;4.30;99.90;;;;;;5074033;28;20249;-47
2022/12/02 06:37:07;;;;;;;42.63;17.65;;;4.30;99.90;;;;;;5074031;28;20170;-46
2022/12/02 06:39:33;;;;;;;36.72;16.60;;;4.40;99.90;;;;;;5074017;28;20528;-47
2022/12/02 06:42:18;;;;;;;47.17;17.75;;;4.30;99.90;;;;;;5073837;28;20209;-48
2022/12/02 06:47:35;;;;;;;34.58;15.45;;;4.40;99.90;;;;;;5074207;28;20181;-49
2022/12/02 06:50:03;;;;;;;45.47;18.33;;;4.40;99.90;;;;;;5073877;28;20196;-46
2022/12/02 06:52:34;;;;;;;38.72;16.13;;;4.30;99.90;;;;;;5073928;28;20180;-46
2022/12/02 06:55:00;;;;;;;37.35;16.90;;;4.30;99.90;;;;;;5073847;28;20641;-47
2022/12/02 06:57:30;;;;;;;38.97;17.88;;;4.30;99.90;;;;;;5073641;28;20207;-46
2022/12/02 06:59:56;;;;;;;40.58;16.50;;;4.40;99.90;;;;;;5073146;28;20261;-47
2022/12/02 07:02:27;;;;;;;40.92;18.48;;;4.40;99.90;;;;;;5073977;28;20209;-47
2022/12/02 07:04:54;;;;;;;38.55;17.30;;;4.40;99.90;;;;;;5074006;28;20166;-49
2022/12/02 07:07:30;;;;;;;36.75;16.52;;;4.40;99.90;;;;;;5074058;28;20529;-47
2022/12/02 07:09:59;;;;;;;34.35;15.90;;;4.40;99.90;;;;;;5073457;28;20170;-47
2022/12/02 07:12:36;;;;;;;39.25;17.38;;;4.40;99.90;;;;;;5073642;28;20564;-46
2022/12/02 07:15:24;;;;;;;33.55;13.82;;;4.40;99.90;;;;;;5073537;28;20607;-47
2022/12/02 07:17:50;;;;;;;38.50;15.10;;;4.40;99.90;;;;;;5073758;28;20693;-48
2022/12/02 07:20:36;;;;;;;36.15;17.95;;;4.40;99.90;;;;;;5073293;28;20208;-48
2022/12/02 07:23:23;;;;;;;40.35;17.40;;;4.40;99.90;;;;;;5073377;28;20181;-48
2022/12/02 07:25:54;;;;;;;43.63;16.48;;;4.40;99.90;;;;;;5073631;28;20173;-47
2022/12/02 07:28:41;;;;;;;38.20;18.67;;;4.40;99.90;;;;;;5073710;28;20166;-47
2022/12/02 07:31:26;;;;;;;48.55;18.27;;;4.40;99.90;;;;;;5073077;28;20174;-51
2022/12/02 07:33:52;;;;;;;46.78;17.05;;;4.50;99.90;;;;;;5073524;28;20173;-47
2022/12/02 07:36:18;;;;;;;43.95;17.10;;;4.40;99.90;;;;;;5072963;28;20245;-46
2022/12/02 07:38:43;;;;;;;42.55;18.05;;;4.50;99.90;;;;;;5072943;28;20177;-48
2022/12/02 07:41:09;;;;;;;42.42;16.48;;;4.50;99.90;;;;;;5072790;28;20213;-48
2022/12/02 07:43:35;;;;;;;36.42;14.35;;;4.50;99.90;;;;;;5073053;28;20174;-47
2022/12/02 07:46:00;;;;;;;43.38;17.50;;;4.50;99.90;;;;;;5072793;28;20165;-48
2022/12/02 07:48:26;;;;;;;39.13;16.50;;;4.40;99.90;;;;;;5073085;28;20166;-48
2022/12/02 07:50:51;;;;;;;39.40;16.40;;;4.40;99.90;;;;;;5073084;28;20189;-47
2022/12/02 07:53:17;;;;;;;42.78;16.92;;;4.40;99.90;;;;;;5072640;28;20320;-47
2022/12/02 07:55:43;;;;;;;41.88;16.98;;;4.40;99.90;;;;;;5072654;28;20176;-49
2022/12/02 07:58:08;;;;;;;38.45;15.57;;;4.40;99.90;;;;;;5072563;28;20703;-47
2022/12/02 08:00:35;;;;;;;47.05;16.55;;;4.50;99.90;;;;;;5054402;28;20261;-47
2022/12/02 08:03:00;;;;;;;41.97;17.33;;;4.50;99.90;;;;;;5054574;28;20216;-47
2022/12/02 08:05:27;;;;;;;48.42;18.30;;;4.50;99.90;;;;;;5072357;28;20166;-50
2022/12/02 08:07:53;;;;;;;43.60;17.20;;;4.50;99.90;;;;;;5072744;28;20166;-47
2022/12/02 08:10:18;;;;;;;47.13;17.52;;;4.40;99.90;;;;;;5072328;28;20166;-48
2022/12/02 08:12:44;;;;;;;49.10;18.48;;;4.40;99.90;;;;;;5072214;28;20252;-47
2022/12/02 08:15:12;;;;;;;46.58;19.17;;;4.40;99.90;;;;;;5072337;28;20158;-47
2022/12/02 08:17:37;;;;;;;57.25;18.50;;;4.40;99.90;;;;;;5072145;28;20177;-47
2022/12/02 08:20:05;;;;;;;49.00;19.05;;;4.50;99.90;;;;;;5072270;28;20173;-47
2022/12/02 08:22:30;;;;;;;48.33;16.20;;;4.50;99.90;;;;;;5072119;28;20201;-46
2022/12/02 08:24:56;;;;;;;45.58;17.00;;;4.50;99.90;;;;;;5072100;28;20227;-47
2022/12/02 08:27:22;;;;;;;45.60;17.90;;;4.40;99.90;;;;;;5072402;28;20200;-46
2022/12/02 08:29:48;;;;;;;58.28;19.63;;;4.40;99.90;;;;;;5071994;28;20165;-47
2022/12/02 08:32:15;;;;;;;50.17;18.35;;;4.40;99.90;;;;;;5072196;28;20166;-47
2022/12/02 08:34:41;;;;;;;58.78;19.45;;;4.40;99.90;;;;;;5054066;28;20231;-46
2022/12/02 08:37:07;;;;;;;55.60;19.73;;;4.40;99.90;;;;;;5072008;28;20623;-47
2022/12/02 08:39:32;;;;;;;56.45;21.38;;;4.40;99.90;;;;;;5071927;28;20174;-47
2022/12/02 08:41:58;;;;;;;50.78;18.10;;;4.40;99.90;;;;;;5071839;28;20346;-47
2022/12/02 08:44:23;;;;;;;54.65;20.13;;;4.40;99.90;;;;;;5072121;28;20499;-46
2022/12/02 08:46:49;;;;;;;67.80;22.88;;;4.50;99.90;;;;;;5072241;28;20522;-47
2022/12/02 08:49:15;;;;;;;55.83;20.17;;;4.40;99.90;;;;;;5072078;28;20253;-47
2022/12/02 08:51:40;;;;;;;45.60;18.52;;;4.40;99.90;;;;;;5071817;28;20170;-47
2022/12/02 08:54:06;;;;;;;42.10;16.13;;;4.40;99.90;;;;;;5071682;28;20158;-48
2022/12/02 08:56:31;;;;;;;49.05;19.80;;;4.40;99.90;;;;;;5071964;28;20264;-47
2022/12/02 08:58:57;;;;;;;50.10;19.48;;;4.50;99.90;;;;;;5071903;28;20161;-47
2022/12/02 09:01:22;;;;;;;56.20;21.02;;;4.50;99.90;;;;;;5071794;28;20692;-47
2022/12/02 09:03:48;;;;;;;50.55;19.02;;;4.60;99.90;;;;;;5072067;28;20220;-46
2022/12/02 09:06:14;;;;;;;53.42;17.58;;;4.50;99.90;;;;;;5071866;28;20170;-47
2022/12/02 09:08:39;;;;;;;56.58;19.75;;;4.40;99.90;;;;;;5071595;28;20219;-47
2022/12/02 09:11:05;;;;;;;55.22;20.42;;;4.40;99.90;;;;;;5071541;28;20169;-48
2022/12/02 09:13:30;;;;;;;50.97;19.30;;;4.50;99.90;;;;;;5071606;28;20244;-46
2022/12/02 09:15:56;;;;;;;54.83;19.15;;;4.50;99.90;;;;;;5071566;28;20177;-46
2022/12/02 09:18:21;;;;;;;38.67;15.98;;;4.50;99.90;;;;;;5071940;28;20169;-46
2022/12/02 09:20:47;;;;;;;46.67;18.50;;;4.50;99.90;;;;;;5053405;28;20205;-46
2022/12/02 09:23:13;;;;;;;36.72;14.93;;;4.60;99.90;;;;;;5074715;28;20256;-47
2022/12/02 09:25:38;;;;;;;36.40;12.82;;;4.50;99.90;;;;;;5075605;28;20173;-47
2022/12/02 09:28:04;;;;;;;47.83;17.88;;;4.40;99.90;;;;;;5075603;28;20162;-47
2022/12/02 09:30:29;;;;;;;34.58;11.65;;;4.40;99.90;;;;;;5075620;28;20166;-48
2022/12/02 09:32:55;;;;;;;32.97;13.82;;;4.40;99.90;;;;;;5075335;28;20158;-48
2022/12/02 09:35:20;;;;;;;40.63;17.50;;;4.40;99.90;;;;;;5075875;28;20177;-47
2022/12/02 09:37:46;;;;;;;34.47;13.68;;;4.40;99.90;;;;;;5075424;28;20158;-47
2022/12/02 09:40:12;;;;;;;33.55;14.77;;;4.40;99.90;;;;;;5075266;28;20193;-48
2022/12/02 09:42:37;;;;;;;40.60;15.98;;;4.40;99.90;;;;;;5075400;28;20201;-49
2022/12/02 09:45:03;;;;;;;41.33;18.27;;;4.40;99.90;;;;;;5075188;28;20166;-50
2022/12/02 09:47:29;;;;;;;34.28;13.50;;;4.40;99.90;;;;;;5075122;28;20578;-48
2022/12/02 09:49:56;;;;;;;45.40;18.27;;;4.40;99.90;;;;;;5075057;28;20194;-49
2022/12/02 09:52:24;;;;;;;38.03;17.02;;;4.40;99.90;;;;;;5075417;28;20170;-49
2022/12/02 09:54:55;;;;;;;39.72;17.67;;;4.40;99.90;;;;;;5075570;28;20169;-47
2022/12/02 09:57:30;;;;;;;43.63;18.13;;;4.50;99.90;;;;;;5075473;28;20174;-47
2022/12/02 09:59:58;;;;;;;41.53;18.40;;;4.50;99.90;;;;;;5074697;28;20165;-47
2022/12/02 10:02:29;;;;;;;45.35;19.30;;;4.40;99.90;;;;;;5057402;28;20237;-47
2022/12/02 10:04:58;;;;;;;43.20;17.67;;;4.50;99.90;;;;;;5075032;28;20170;-49
2022/12/02 10:07:24;;;;;;;40.00;18.77;;;4.50;99.90;;;;;;5074679;28;20162;-49
2022/12/02 10:09:49;;;;;;;48.88;20.25;;;4.60;99.90;;;;;;5075089;28;20184;-47
2022/12/02 10:12:15;;;;;;;50.22;20.48;;;4.60;99.90;;;;;;5074684;28;20528;-47
2022/12/02 10:14:47;;;;;;;51.92;17.60;;;4.60;99.90;;;;;;5074588;28;20170;-48
2022/12/02 10:17:16;;;;;;;43.58;18.67;;;4.60;99.90;;;;;;5074562;28;20253;-49
2022/12/02 10:19:43;;;;;;;40.47;16.80;;;4.60;99.90;;;;;;5074726;28;20196;-47
2022/12/02 10:22:15;;;;;;;45.83;19.08;;;4.60;99.90;;;;;;5074435;28;20209;-47
2022/12/02 10:24:41;;;;;;;44.22;18.77;;;4.60;99.90;;;;;;5074345;28;20173;-48
2022/12/02 10:27:07;;;;;;;42.38;16.40;;;4.50;99.90;;;;;;5074394;28;20170;-48
2022/12/02 10:29:33;;;;;;;40.42;15.05;;;4.60;99.90;;;;;;5074340;28;20169;-47
2022/12/02 10:32:04;;;;;;;43.88;17.88;;;4.50;99.90;;;;;;5074365;28;20249;-47
2022/12/02 10:34:32;;;;;;;41.08;16.75;;;4.60;99.90;;;;;;5073388;28;20170;-47
2022/12/02 10:37:22;;;;;;;43.05;18.48;;;4.50;99.90;;;;;;5074273;28;20215;-47
2022/12/02 10:39:48;;;;;;;43.13;18.85;;;4.50;99.90;;;;;;5074736;28;20511;-47
2022/12/02 10:42:20;;;;;;;46.75;18.73;;;4.60;99.90;;;;;;5073988;28;20259;-48
2022/12/02 10:44:46;;;;;;;38.55;15.93;;;4.60;99.90;;;;;;5074293;28;20228;-48
2022/12/02 10:47:15;;;;;;;42.03;18.63;;;4.50;99.90;;;;;;5073998;28;20165;-47
2022/12/02 10:49:51;;;;;;;44.92;19.23;;;4.60;99.90;;;;;;5074224;28;20177;-48
2022/12/02 10:52:21;;;;;;;43.50;18.17;;;4.50;99.90;;;;;;5074244;28;20193;-46
2022/12/02 10:54:49;;;;;;;40.20;18.30;;;4.50;99.90;;;;;;5055897;28;20231;-48
2022/12/02 10:57:25;;;;;;;36.53;16.90;;;4.50;99.90;;;;;;5071592;28;20169;-48
2022/12/02 10:59:52;;;;;;;34.30;14.07;;;4.50;99.90;;;;;;5072577;28;20165;-47
2022/12/02 11:02:29;;;;;;;39.60;17.85;;;4.40;99.90;;;;;;5065371;28;20620;-47
2022/12/02 11:04:57;;;;;;;20.70;10.57;;;4.50;99.90;;;;;;5052012;28;20169;-46
2022/12/02 11:07:23;;;;;;;45.58;17.15;;;4.40;99.90;;;;;;5052158;28;20225;-45
2022/12/02 11:09:53;;;;;;;40.55;18.40;;;4.50;99.90;;;;;;5052499;28;20170;-45
2022/12/02 11:12:33;;;;;;;45.25;18.15;;;4.50;99.90;;;;;;5052322;28;20253;-46
2022/12/02 11:14:58;;;;;;;40.45;16.05;;;4.50;99.90;;;;;;5051734;28;20686;-46
2022/12/02 11:17:45;;;;;;;32.83;16.63;;;4.60;99.90;;;;;;5051946;28;20246;-46
2022/12/02 11:20:28;;;;;;;34.28;16.48;;;4.60;99.90;;;;;;5052078;28;20171;-46
2022/12/02 11:23:00;;;;;;;41.92;16.45;;;4.60;99.90;;;;;;5051814;28;20186;-46
2022/12/02 11:25:49;;;;;;;35.80;15.52;;;4.60;99.90;;;;;;5051603;28;20171;-46
2022/12/02 11:28:18;;;;;;;24.80;11.70;;;4.50;99.90;;;;;;5051446;28;20190;-47
2022/12/02 11:30:45;;;;;;;27.58;14.45;;;4.40;99.90;;;;;;5051560;28;20159;-47
2022/12/02 11:33:13;;;;;;;34.42;15.88;;;4.50;99.90;;;;;;5051448;28;20205;-47
2022/12/02 11:36:03;;;;;;;24.70;12.30;;;4.50;99.90;;;;;;5051241;28;20166;-46
2022/12/02 11:38:42;;;;;;;33.80;16.50;;;4.50;99.90;;;;;;5051005;28;20646;-46
2022/12/02 11:41:08;;;;;;;27.33;14.27;;;4.50;99.90;;;;;;5050352;28;20287;-46
2022/12/02 11:44:08;;;;;;;22.95;11.20;;;4.50;99.90;;;;;;5050764;28;20213;-46
2022/12/02 11:46:48;;;;;;;20.75;10.27;;;4.50;99.90;;;;;;5032966;28;20549;-46
2022/12/02 11:49:39;;;;;;;24.35;11.68;;;4.50;99.90;;;;;;5050561;28;20170;-47
2022/12/02 11:52:08;;;;;;;22.02;11.73;;;4.50;99.90;;;;;;5050721;28;20170;-46
2022/12/02 11:54:42;;;;;;;16.00;9.00;;;4.50;99.90;;;;;;5049928;28;20262;-46
2022/12/02 11:57:18;;;;;;;27.42;14.75;;;4.50;99.90;;;;;;5049021;28;20237;-47
2022/12/02 11:59:43;;;;;;;28.23;13.15;;;4.50;99.90;;;;;;5049013;28;20190;-47
2022/12/02 12:02:20;;;;;;;25.90;13.23;;;4.60;99.90;;;;;;5049376;28;20265;-46
2022/12/02 12:05:05;;;;;;;27.40;13.38;;;4.60;99.90;;;;;;5049430;28;20173;-46
2022/12/02 12:07:49;;;;;;;24.85;12.57;;;5.80;99.90;;;;;;5048851;28;20225;-47
2022/12/02 12:10:26;;;;;;;25.33;14.48;;;4.60;99.90;;;;;;5048811;28;20158;-47
2022/12/02 12:13:11;;;;;;;18.88;10.10;;;4.60;99.90;;;;;;5049227;28;20502;-46
2022/12/02 12:15:53;;;;;;;24.00;11.48;;;4.60;99.90;;;;;;5049807;28;20301;-46
2022/12/02 12:18:45;;;;;;;20.15;10.38;;;4.70;99.90;;;;;;5049485;28;20159;-46
2022/12/02 12:21:14;;;;;;;23.63;13.35;;;4.70;99.90;;;;;;5030554;28;20286;-47
2022/12/02 12:23:44;;;;;;;23.55;13.00;;;4.70;99.90;;;;;;5031563;28;20229;-46
2022/12/02 12:26:33;;;;;;;22.52;13.05;;;4.60;99.90;;;;;;5049444;28;20257;-46
2022/12/02 12:29:03;;;;;;;26.10;14.05;;;4.60;99.90;;;;;;5048958;28;20201;-47
2022/12/02 12:31:29;;;;;;;26.80;14.95;;;3.40;99.90;;;;;;5048659;28;20330;-45
2022/12/02 12:33:54;;;;;;;20.50;12.40;;;4.60;99.90;;;;;;5048563;28;20618;-46
2022/12/02 12:36:20;;;;;;;16.58;8.23;;;4.60;99.90;;;;;;5050425;28;20175;-45
2022/12/02 12:38:45;;;;;;;18.92;10.02;;;4.50;99.90;;;;;;5049980;28;20185;-45
2022/12/02 12:41:11;;;;;;;24.98;14.82;;;4.50;99.90;;;;;;5049842;28;20286;-46
2022/12/02 12:43:36;;;;;;;23.17;13.10;;;4.60;99.90;;;;;;5049815;28;20174;-46
2022/12/02 12:46:02;;;;;;;18.00;11.02;;;4.60;99.90;;;;;;5049730;28;20170;-46
2022/12/02 12:48:28;;;;;;;28.10;13.02;;;4.60;99.90;;;;;;5049815;28;20159;-46